Time;durP1;ratioP1;P1;durP2;ratioP2;P2;SDS_P1;SDS_P2;PMS_P1;PMS_P2;Temp;Humidity;BMP_temperature;BMP_pressure;BME280_temperature;BME280_humidity;BME280_pressure;Samples;Min_cycle;Max_cycle;Signal;HPM_P1;HPM_P2
2023/06/26 00:01:59;;;;;;;;;;;;;;;19.64;56.32;96458.53;5086077;28;19933;-72
2023/06/26 00:04:24;;;;;;;;;;;;;;;19.61;56.40;96458.28;5085985;28;19933;-72
2023/06/26 00:06:50;;;;;;;;;;;;;;;19.58;56.71;96464.16;5086339;28;19948;-71
2023/06/26 00:09:16;;;;;;;;;;;;;;;19.52;57.32;96455.41;5085979;28;19948;-73
2023/06/26 00:11:42;;;;;;;;;;;;;;;19.47;57.48;96452.78;5086112;28;19948;-72
2023/06/26 00:14:08;;;;;;;;;;;;;;;19.42;57.67;96458.13;5084765;28;19954;-76
2023/06/26 00:16:34;;;;;;;;;;;;;;;19.38;58.83;96465.88;5084655;28;19939;-76
2023/06/26 00:18:59;;;;;;;;;;;;;;;19.32;58.88;96464.28;5083706;28;19951;-78
2023/06/26 00:21:25;;;;;;;;;;;;;;;19.26;58.23;96460.84;5084390;28;19980;-79
2023/06/26 00:23:51;;;;;;;;;;;;;;;19.21;58.85;96462.72;5101412;28;19962;-77
2023/06/26 00:26:17;;;;;;;;;;;;;;;19.16;59.25;96462.75;5085299;28;19948;-80
2023/06/26 00:28:43;;;;;;;;;;;;;;;19.12;59.33;96467.81;5101906;28;19942;-78
2023/06/26 00:31:09;;;;;;;;;;;;;;;19.09;59.27;96459.59;5084329;28;19953;-71
2023/06/26 00:33:34;;;;;;;;;;;;;;;19.05;58.93;96462.00;5085574;28;19942;-76
2023/06/26 00:36:00;;;;;;;;;;;;;;;19.02;58.56;96460.69;5085714;28;19936;-71
2023/06/26 00:38:26;;;;;;;;;;;;;;;19.02;59.04;96460.69;5085368;28;19939;-70
2023/06/26 00:40:52;;;;;;;;;;;;;;;19.01;59.56;96467.06;5085014;28;19953;-71
2023/06/26 00:43:18;;;;;;;;;;;;;;;18.96;60.32;96466.28;5085457;28;20004;-70
2023/06/26 00:45:44;;;;;;;;;;;;;;;18.93;61.10;96466.84;5085277;28;19939;-69
2023/06/26 00:48:11;;;;;;;;;;;;;;;18.86;61.07;96462.59;5085212;28;19928;-71
2023/06/26 00:50:37;;;;;;;;;;;;;;;18.85;60.90;96468.19;5084339;28;19933;-78
2023/06/26 00:53:03;;;;;;;;;;;;;;;18.82;61.01;96458.88;5101516;28;19950;-70
2023/06/26 00:55:29;;;;;;;;;;;;;;;18.81;61.46;96456.50;5084700;28;19974;-70
2023/06/26 00:57:55;;;;;;;;;;;;;;;18.78;61.97;96454.34;5085801;28;19933;-70
2023/06/26 01:00:21;;;;;;;;;;;;;;;18.75;62.12;96455.69;5084546;28;19929;-70
2023/06/26 01:02:47;;;;;;;;;;;;;;;18.70;62.31;96455.69;5100600;28;20280;-69
2023/06/26 01:05:20;;;;;;;;;;;;;;;18.68;62.20;96449.84;5085003;28;19940;-70
2023/06/26 01:07:49;;;;;;;;;;;;;;;18.64;62.09;96440.84;5067543;28;20057;-72
2023/06/26 01:10:15;;;;;;;;;;;;;;;18.64;62.07;96452.25;5084766;28;19940;-73
2023/06/26 01:12:41;;;;;;;;;;;;;;;18.63;62.28;96453.31;5083622;28;19942;-72
2023/06/26 01:15:08;;;;;;;;;;;;;;;18.62;62.50;96453.59;5083609;28;19948;-71
2023/06/26 01:17:34;;;;;;;;;;;;;;;18.57;63.12;96457.06;5084746;28;20243;-72
2023/06/26 01:20:01;;;;;;;;;;;;;;;18.53;64.15;96449.91;5084500;28;19967;-72
2023/06/26 01:22:27;;;;;;;;;;;;;;;18.45;63.62;96452.00;5085000;28;20217;-71
2023/06/26 01:25:12;;;;;;;;;;;;;;;18.40;64.02;96453.91;5084800;28;20055;-72
2023/06/26 01:27:39;;;;;;;;;;;;;;;18.37;64.82;96452.59;5085342;28;19939;-72
2023/06/26 01:30:05;;;;;;;;;;;;;;;18.35;64.89;96459.19;5084297;28;19937;-71
2023/06/26 01:32:32;;;;;;;;;;;;;;;18.31;64.50;96447.53;5085093;28;20243;-70
2023/06/26 01:34:59;;;;;;;;;;;;;;;18.26;64.78;96443.00;5084433;28;19940;-71
2023/06/26 01:37:25;;;;;;;;;;;;;;;18.23;65.40;96443.56;5084366;28;19942;-72
2023/06/26 01:39:50;;;;;;;;;;;;;;;18.17;65.46;96444.63;5084350;28;20176;-71
2023/06/26 01:42:17;;;;;;;;;;;;;;;18.12;66.10;96444.63;5084330;28;19936;-71
2023/06/26 01:44:45;;;;;;;;;;;;;;;18.09;65.80;96443.28;5084269;28;19943;-71
2023/06/26 01:47:14;;;;;;;;;;;;;;;18.03;65.95;96445.13;5100037;28;19937;-76
2023/06/26 01:49:58;;;;;;;;;;;;;;;18.00;66.30;96436.94;5099960;28;19932;-70
2023/06/26 01:52:30;;;;;;;;;;;;;;;17.96;66.61;96434.00;5083802;28;19945;-70
2023/06/26 01:55:05;;;;;;;;;;;;;;;17.93;67.10;96437.19;5084208;28;19983;-70
2023/06/26 01:57:31;;;;;;;;;;;;;;;17.90;67.25;96434.28;5084394;28;20237;-70
2023/06/26 01:59:58;;;;;;;;;;;;;;;17.87;67.25;96438.25;5083637;28;19960;-70
2023/06/26 02:02:24;;;;;;;;;;;;;;;17.82;67.33;96438.22;5083926;28;19949;-70
2023/06/26 02:04:51;;;;;;;;;;;;;;;17.78;67.13;96445.88;5084083;28;20000;-70
2023/06/26 02:07:17;;;;;;;;;;;;;;;17.75;66.95;96443.78;5084032;28;19943;-70
2023/06/26 02:09:43;;;;;;;;;;;;;;;17.74;67.27;96449.34;5084008;28;19938;-70
2023/06/26 02:12:09;;;;;;;;;;;;;;;17.73;67.57;96447.75;5084506;28;20213;-70
2023/06/26 02:14:35;;;;;;;;;;;;;;;17.70;68.20;96457.03;5084211;28;19934;-69
2023/06/26 02:17:01;;;;;;;;;;;;;;;17.67;68.31;96462.84;5084729;28;19940;-70
2023/06/26 02:19:27;;;;;;;;;;;;;;;17.62;68.61;96453.03;5084629;28;19946;-69
2023/06/26 02:21:53;;;;;;;;;;;;;;;17.59;68.43;96450.91;5083774;28;20282;-70
2023/06/26 02:24:19;;;;;;;;;;;;;;;17.56;68.61;96456.75;5083827;28;20121;-71
2023/06/26 02:26:45;;;;;;;;;;;;;;;17.55;68.93;96449.03;5084603;28;19941;-69
2023/06/26 02:29:11;;;;;;;;;;;;;;;17.53;69.34;96456.47;5099639;28;19937;-70
2023/06/26 02:31:37;;;;;;;;;;;;;;;17.52;68.72;96457.53;5099724;28;19963;-70
2023/06/26 02:34:04;;;;;;;;;;;;;;;17.49;68.95;96450.09;5083438;28;19933;-70
2023/06/26 02:36:29;;;;;;;;;;;;;;;17.48;70.18;96461.75;5083445;28;19934;-70
2023/06/26 02:38:55;;;;;;;;;;;;;;;17.45;69.61;96457.78;5099481;28;20297;-70
2023/06/26 02:41:21;;;;;;;;;;;;;;;17.45;69.32;96460.44;5101314;28;19930;-77
2023/06/26 02:43:47;;;;;;;;;;;;;;;17.45;69.09;96457.78;5087590;28;19996;-71
2023/06/26 02:46:13;;;;;;;;;;;;;;;17.45;69.87;96458.56;5087249;28;19945;-72
2023/06/26 02:48:39;;;;;;;;;;;;;;;17.44;69.23;96462.28;5087263;28;19938;-71
2023/06/26 02:51:04;;;;;;;;;;;;;;;17.42;69.46;96459.06;5087521;28;19936;-72
2023/06/26 02:53:31;;;;;;;;;;;;;;;17.41;69.41;96456.72;5086240;28;19937;-72
2023/06/26 02:55:56;;;;;;;;;;;;;;;17.40;69.27;96458.53;5088168;28;19939;-71
2023/06/26 02:58:22;;;;;;;;;;;;;;;17.40;69.38;96460.41;5103656;28;19940;-71
2023/06/26 03:00:48;;;;;;;;;;;;;;;17.40;69.18;96458.53;5087251;28;19936;-71
2023/06/26 03:03:14;;;;;;;;;;;;;;;17.39;69.66;96461.47;5087596;28;20027;-70
2023/06/26 03:05:40;;;;;;;;;;;;;;;17.39;69.25;96459.63;5085901;28;19942;-70
2023/06/26 03:08:06;;;;;;;;;;;;;;;17.37;69.38;96456.44;5102963;28;20238;-70
2023/06/26 03:10:31;;;;;;;;;;;;;;;17.34;70.14;96461.44;5087008;28;19943;-70
2023/06/26 03:12:57;;;;;;;;;;;;;;;17.30;70.27;96465.66;5087614;28;19947;-70
2023/06/26 03:15:23;;;;;;;;;;;;;;;17.26;70.65;96465.41;5087782;28;19941;-70
2023/06/26 03:17:49;;;;;;;;;;;;;;;17.23;70.65;96468.56;5086961;28;19944;-71
2023/06/26 03:20:15;;;;;;;;;;;;;;;17.20;70.33;96464.59;5086809;28;20310;-77
2023/06/26 03:22:41;;;;;;;;;;;;;;;17.19;70.64;96467.50;5087264;28;19944;-76
2023/06/26 03:25:10;;;;;;;;;;;;;;;17.18;70.16;96466.69;5086776;28;19955;-76
2023/06/26 03:27:35;;;;;;;;;;;;;;;17.19;70.40;96470.13;5086749;28;19942;-76
2023/06/26 03:30:01;;;;;;;;;;;;;;;17.19;70.71;96468.28;5086735;28;19941;-77
2023/06/26 03:32:27;;;;;;;;;;;;;;;17.18;70.07;96464.06;5087105;28;19964;-76
2023/06/26 03:34:53;;;;;;;;;;;;;;;17.18;70.45;96464.06;5086672;28;19936;-76
2023/06/26 03:37:19;;;;;;;;;;;;;;;17.18;70.62;96468.56;5087113;28;19938;-76
2023/06/26 03:39:45;;;;;;;;;;;;;;;17.17;70.01;96467.75;5087034;28;19935;-75
2023/06/26 03:42:11;;;;;;;;;;;;;;;17.16;70.29;96466.16;5086588;28;19943;-75
2023/06/26 03:44:36;;;;;;;;;;;;;;;17.16;70.30;96468.81;5102743;28;19955;-75
2023/06/26 03:47:02;;;;;;;;;;;;;;;17.16;71.63;96468.81;5086487;28;19940;-75
2023/06/26 03:49:28;;;;;;;;;;;;;;;17.16;71.26;96462.72;5086379;28;20014;-73
2023/06/26 03:51:54;;;;;;;;;;;;;;;17.15;70.40;96461.91;5086857;28;20233;-74
2023/06/26 03:54:20;;;;;;;;;;;;;;;17.15;71.10;96467.19;5086582;28;19931;-72
2023/06/26 03:56:46;;;;;;;;;;;;;;;17.15;70.84;96464.56;5085756;28;20221;-71
2023/06/26 03:59:11;;;;;;;;;;;;;;;17.15;71.00;96467.19;5087007;28;19928;-70
2023/06/26 04:01:37;;;;;;;;;;;;;;;17.15;71.48;96471.72;5084960;28;19938;-70
2023/06/26 04:04:03;;;;;;;;;;;;;;;17.16;71.92;96471.47;5085998;28;19974;-70
2023/06/26 04:06:31;;;;;;;;;;;;;;;17.18;71.42;96473.88;5085627;28;19970;-69
2023/06/26 04:08:57;;;;;;;;;;;;;;;17.17;71.73;96474.91;5085973;28;19940;-69
2023/06/26 04:11:24;;;;;;;;;;;;;;;17.18;71.60;96479.16;5086764;28;19939;-69
2023/06/26 04:13:49;;;;;;;;;;;;;;;17.17;72.49;96481.00;5086778;28;19946;-70
2023/06/26 04:16:15;;;;;;;;;;;;;;;17.18;71.90;96472.00;5085873;28;19944;-73
2023/06/26 04:18:41;;;;;;;;;;;;;;;17.21;71.67;96481.28;5085781;28;19949;-75
2023/06/26 04:21:07;;;;;;;;;;;;;;;17.25;72.38;96485.78;5084562;28;19979;-75
2023/06/26 04:23:33;;;;;;;;;;;;;;;17.30;72.09;96484.22;5102169;28;19963;-74
2023/06/26 04:25:59;;;;;;;;;;;;;;;17.32;72.75;96487.41;5085745;28;20221;-74
2023/06/26 04:28:25;;;;;;;;;;;;;;;17.35;71.41;96481.59;5086425;28;19943;-72
2023/06/26 04:30:51;;;;;;;;;;;;;;;17.47;72.64;96484.84;5085442;28;19940;-72
2023/06/26 04:33:17;;;;;;;;;;;;;;;17.62;71.18;96481.44;5086030;28;19958;-69
2023/06/26 04:35:48;;;;;;;;;;;;;;;17.80;71.28;96467.63;5086018;28;19940;-73
2023/06/26 04:38:15;;;;;;;;;;;;;;;17.97;70.89;96466.63;5085990;28;19955;-73
2023/06/26 04:40:41;;;;;;;;;;;;;;;18.13;70.41;96462.94;5085473;28;19941;-72
2023/06/26 04:43:07;;;;;;;;;;;;;;;18.29;69.60;96462.91;5085299;28;19939;-73
2023/06/26 04:45:32;;;;;;;;;;;;;;;18.40;68.63;96451.25;5086138;28;20120;-72
2023/06/26 04:48:00;;;;;;;;;;;;;;;18.50;68.28;96455.72;5085801;28;20216;-72
2023/06/26 04:50:28;;;;;;;;;;;;;;;18.58;68.43;96450.69;5085237;28;19946;-67
2023/06/26 04:52:54;;;;;;;;;;;;;;;18.67;68.03;96451.72;5085095;28;19940;-67
2023/06/26 04:55:21;;;;;;;;;;;;;;;18.76;67.71;96449.31;5085858;28;19960;-68
2023/06/26 04:57:47;;;;;;;;;;;;;;;18.84;67.44;96451.44;5084896;28;19945;-67
2023/06/26 05:00:13;;;;;;;;;;;;;;;18.93;67.56;96449.03;5085007;28;19948;-70
2023/06/26 05:02:39;;;;;;;;;;;;;;;19.01;68.17;96453.00;5085217;28;19947;-70
2023/06/26 05:05:05;;;;;;;;;;;;;;;19.01;67.15;96447.66;5085162;28;19961;-71
2023/06/26 05:07:31;;;;;;;;;;;;;;;19.04;67.40;96452.44;5084839;28;19940;-73
2023/06/26 05:09:57;;;;;;;;;;;;;;;19.06;68.59;96455.63;5084884;28;19935;-71
2023/06/26 05:12:23;;;;;;;;;;;;;;;19.09;67.61;96448.94;5084723;28;19943;-75
2023/06/26 05:14:48;;;;;;;;;;;;;;;19.17;68.57;96456.38;5085297;28;19937;-76
2023/06/26 05:17:15;;;;;;;;;;;;;;;19.23;66.94;96444.63;5100465;28;19947;-75
2023/06/26 05:19:40;;;;;;;;;;;;;;;19.34;66.72;96448.88;5085189;28;19934;-75
2023/06/26 05:22:07;;;;;;;;;;;;;;;19.50;66.86;96452.22;5085446;28;20184;-76
2023/06/26 05:24:34;;;;;;;;;;;;;;;19.65;66.13;96440.69;5084380;28;19979;-75
2023/06/26 05:27:01;;;;;;;;;;;;;;;19.81;65.94;96444.09;5084564;28;19950;-75
2023/06/26 05:29:27;;;;;;;;;;;;;;;19.98;64.82;96438.38;5084465;28;19930;-71
2023/06/26 05:31:53;;;;;;;;;;;;;;;20.12;64.45;96431.34;5083257;28;19960;-71
2023/06/26 05:34:21;;;;;;;;;;;;;;;20.32;64.35;96435.69;5083319;28;19949;-71
2023/06/26 05:36:49;;;;;;;;;;;;;;;20.51;63.45;96432.31;5084402;28;19948;-70
2023/06/26 05:39:15;;;;;;;;;;;;;;;20.63;62.19;96427.44;5083192;28;19940;-71
2023/06/26 05:41:41;;;;;;;;;;;;;;;20.75;62.66;96427.84;5083137;28;20008;-71
2023/06/26 05:44:07;;;;;;;;;;;;;;;20.93;61.78;96428.16;5084824;28;19990;-70
2023/06/26 05:46:33;;;;;;;;;;;;;;;21.05;61.74;96418.69;5084251;28;19934;-71
2023/06/26 05:48:58;;;;;;;;;;;;;;;21.26;61.08;96416.53;5084744;28;20001;-70
2023/06/26 05:51:24;;;;;;;;;;;;;;;21.44;59.97;96416.88;5083036;28;19942;-71
2023/06/26 05:53:50;;;;;;;;;;;;;;;21.59;59.31;96415.88;5084176;28;19943;-71
2023/06/26 05:56:18;;;;;;;;;;;;;;;21.75;59.67;96419.09;5084198;28;19946;-71
2023/06/26 05:58:45;;;;;;;;;;;;;;;21.94;58.93;96419.06;5084666;28;19935;-72
2023/06/26 06:01:11;;;;;;;;;;;;;;;22.06;58.67;96409.53;5084121;28;19942;-71
2023/06/26 06:03:37;;;;;;;;;;;;;;;22.29;58.19;96417.72;5084790;28;20110;-70
2023/06/26 06:06:03;;;;;;;;;;;;;;;22.44;57.39;96409.44;5084136;28;19935;-72
2023/06/26 06:08:29;;;;;;;;;;;;;;;22.51;57.12;96409.06;5084043;28;19998;-72
2023/06/26 06:10:55;;;;;;;;;;;;;;;22.59;57.31;96411.03;5084094;28;19934;-72
2023/06/26 06:13:20;;;;;;;;;;;;;;;22.66;57.47;96416.78;5084546;28;20219;-73
2023/06/26 06:15:46;;;;;;;;;;;;;;;22.80;56.91;96418.69;5084640;28;19941;-73
2023/06/26 06:18:12;;;;;;;;;;;;;;;23.02;56.56;96410.78;5088162;28;19938;-72
2023/06/26 06:20:38;;;;;;;;;;;;;;;23.30;56.05;96406.16;5088316;28;20263;-70
2023/06/26 06:23:04;;;;;;;;;;;;;;;23.48;55.59;96409.03;5088008;28;20014;-70
2023/06/26 06:25:30;;;;;;;;;;;;;;;23.63;54.34;96414.03;5087899;28;19936;-71
2023/06/26 06:27:55;;;;;;;;;;;;;;;23.79;53.81;96402.97;5087897;28;19943;-72
2023/06/26 06:30:21;;;;;;;;;;;;;;;23.84;54.04;96413.59;5087896;28;19935;-72
2023/06/26 06:32:50;;;;;;;;;;;;;;;23.87;54.06;96410.28;5087792;28;19955;-72
2023/06/26 06:35:17;;;;;;;;;;;;;;;23.93;53.59;96410.97;5088593;28;20109;-72
2023/06/26 06:37:43;;;;;;;;;;;;;;;24.01;53.69;96412.91;5087717;28;19953;-72
2023/06/26 06:40:09;;;;;;;;;;;;;;;24.11;53.24;96401.94;5087752;28;20224;-77
2023/06/26 06:42:35;;;;;;;;;;;;;;;24.22;53.53;96403.28;5087606;28;20121;-75
2023/06/26 06:45:05;;;;;;;;;;;;;;;24.32;53.44;96412.94;5104097;28;19972;-75
2023/06/26 06:47:34;;;;;;;;;;;;;;;24.38;53.05;96411.72;5087539;28;19947;-75
2023/06/26 06:50:07;;;;;;;;;;;;;;;24.56;54.13;96415.28;5087526;28;19931;-75
2023/06/26 06:52:42;;;;;;;;;;;;;;;24.70;53.46;96415.97;5088279;28;19941;-75
2023/06/26 06:55:08;;;;;;;;;;;;;;;24.89;52.63;96413.06;5088190;28;19947;-76
2023/06/26 06:57:38;;;;;;;;;;;;;;;24.97;52.34;96408.00;5087321;28;20237;-78
2023/06/26 07:00:05;;;;;;;;;;;;;;;25.10;51.08;96407.13;5087321;28;19933;-72
2023/06/26 07:02:31;;;;;;;;;;;;;;;25.22;51.58;96409.19;5087184;28;19946;-71
2023/06/26 07:04:57;;;;;;;;;;;;;;;25.41;51.17;96406.22;5103759;28;19954;-71
2023/06/26 07:07:22;;;;;;;;;;;;;;;25.53;51.11;96406.41;5087161;28;20243;-72
2023/06/26 07:09:48;;;;;;;;;;;;;;;25.68;51.35;96397.88;5102994;28;20257;-71
2023/06/26 07:12:14;;;;;;;;;;;;;;;25.79;49.78;96389.53;5086840;28;20250;-71
2023/06/26 07:14:40;;;;;;;;;;;;;;;25.92;50.25;96386.66;5086404;28;20132;-71
2023/06/26 07:17:06;;;;;;;;;;;;;;;26.09;50.23;96398.50;5085927;28;19976;-73
2023/06/26 07:19:32;;;;;;;;;;;;;;;26.23;49.69;96393.72;5087164;28;19965;-73
2023/06/26 07:21:57;;;;;;;;;;;;;;;26.31;50.13;96389.41;5086735;28;19963;-72
2023/06/26 07:24:23;;;;;;;;;;;;;;;26.37;49.93;96398.91;5085708;28;19970;-73
2023/06/26 07:26:49;;;;;;;;;;;;;;;26.45;49.97;96390.00;5102153;28;19940;-72
2023/06/26 07:29:15;;;;;;;;;;;;;;;26.59;50.27;96397.13;5087304;28;20004;-72
2023/06/26 07:31:41;;;;;;;;;;;;;;;26.71;48.76;96398.03;5086597;28;19958;-73
2023/06/26 07:34:07;;;;;;;;;;;;;;;26.67;48.72;96399.78;5087515;28;20144;-73
2023/06/26 07:36:33;;;;;;;;;;;;;;;26.77;48.88;96398.63;5102372;28;19933;-77
2023/06/26 07:38:59;;;;;;;;;;;;;;;26.92;49.26;96397.28;5086644;28;20261;-72
2023/06/26 07:41:25;;;;;;;;;;;;;;;27.07;47.86;96396.72;5086796;28;19966;-72
2023/06/26 07:43:50;;;;;;;;;;;;;;;27.12;47.39;96396.53;5086037;28;19975;-72
2023/06/26 07:46:16;;;;;;;;;;;;;;;27.22;48.48;96405.34;5087070;28;19938;-72
2023/06/26 07:48:42;;;;;;;;;;;;;;;27.25;47.78;96399.34;5086453;28;19935;-72
2023/06/26 07:51:08;;;;;;;;;;;;;;;27.21;47.42;96403.75;5086425;28;19942;-72
2023/06/26 07:53:34;;;;;;;;;;;;;;;27.28;49.42;96404.88;5086033;28;20007;-72
2023/06/26 07:55:59;;;;;;;;;;;;;;;27.46;48.46;96392.06;5102407;28;19940;-75
2023/06/26 07:58:25;;;;;;;;;;;;;;;27.59;46.82;96392.91;5085748;28;19938;-77
2023/06/26 08:00:51;;;;;;;;;;;;;;;27.73;46.20;96392.63;5086235;28;20275;-78
2023/06/26 08:03:17;;;;;;;;;;;;;;;27.89;46.37;96382.84;5101883;28;20218;-77
2023/06/26 08:05:43;;;;;;;;;;;;;;;28.10;45.68;96382.81;5086748;28;19953;-77
2023/06/26 08:08:09;;;;;;;;;;;;;;;28.35;46.11;96377.47;5085682;28;19944;-78
2023/06/26 08:10:34;;;;;;;;;;;;;;;28.52;44.97;96380.00;5085538;28;19947;-77
2023/06/26 08:13:00;;;;;;;;;;;;;;;28.66;41.21;96390.44;5084826;28;19961;-73
2023/06/26 08:15:26;;;;;;;;;;;;;;;28.76;39.42;96383.03;5085877;28;20018;-72
2023/06/26 08:17:52;;;;;;;;;;;;;;;28.85;38.80;96392.63;5067953;28;20226;-72
2023/06/26 08:20:19;;;;;;;;;;;;;;;28.89;38.41;96392.69;5101433;28;20315;-72
2023/06/26 08:22:47;;;;;;;;;;;;;;;28.94;37.51;96393.28;5085350;28;19945;-72
2023/06/26 08:25:13;;;;;;;;;;;;;;;29.01;37.40;96390.00;5085339;28;20135;-72
2023/06/26 08:27:39;;;;;;;;;;;;;;;29.21;37.72;96395.63;5086428;28;19970;-72
2023/06/26 08:30:05;;;;;;;;;;;;;;;29.36;35.81;96394.94;5085144;28;19944;-77
2023/06/26 08:32:31;;;;;;;;;;;;;;;29.58;37.51;96392.84;5101289;28;19958;-73
2023/06/26 08:34:57;;;;;;;;;;;;;;;29.79;35.75;96388.06;5086061;28;20003;-73
2023/06/26 08:37:22;;;;;;;;;;;;;;;29.93;36.46;96388.47;5085491;28;19941;-74
2023/06/26 08:39:49;;;;;;;;;;;;;;;30.02;34.48;96380.19;5084627;28;20103;-73
2023/06/26 08:42:14;;;;;;;;;;;;;;;30.06;34.24;96380.28;5086152;28;20229;-73
2023/06/26 08:44:40;;;;;;;;;;;;;;;30.18;36.13;96390.28;5085109;28;20014;-72
2023/06/26 08:47:06;;;;;;;;;;;;;;;30.13;34.05;96394.81;5085727;28;19943;-72
2023/06/26 08:49:54;;;;;;;;;;;;;;;30.20;34.48;96393.38;5085691;28;20226;-82
2023/06/26 08:52:22;;;;;;;;;;;;;;;30.31;34.75;96395.28;5083875;28;19946;-72
2023/06/26 08:54:52;;;;;;;;;;;;;;;30.41;33.25;96393.19;5085050;28;19930;-71
2023/06/26 08:57:19;;;;;;;;;;;;;;;30.61;34.82;96392.16;5100864;28;19937;-72
2023/06/26 09:01:46;;;;;;;;;;;;;;;30.84;31.13;96386.13;5102487;28;20228;-71
2023/06/26 09:04:12;;;;;;;;;;;;;;;30.90;33.38;96390.16;5101602;28;19938;-71
2023/06/26 09:06:39;;;;;;;;;;;;;;;30.89;32.47;96386.66;5101595;28;19941;-77
2023/06/26 09:09:05;;;;;;;;;;;;;;;30.77;31.63;96389.44;5101516;28;20253;-75
2023/06/26 09:11:31;;;;;;;;;;;;;;;30.72;30.90;96393.22;5101216;28;19936;-71
2023/06/26 09:13:57;;;;;;;;;;;;;;;30.77;32.38;96386.75;5100190;28;20129;-72
2023/06/26 09:16:26;;;;;;;;;;;;;;;30.88;31.57;96390.50;5100151;28;19942;-72
2023/06/26 09:18:52;;;;;;;;;;;;;;;30.90;31.61;96377.41;5101339;28;19946;-71
2023/06/26 09:21:18;;;;;;;;;;;;;;;31.03;32.64;96385.41;5101158;28;19998;-72
2023/06/26 09:23:44;;;;;;;;;;;;;;;31.22;32.28;96385.44;5100053;28;20015;-71
2023/06/26 09:26:10;;;;;;;;;;;;;;;31.35;32.53;96389.63;5101177;28;19939;-75
2023/06/26 09:28:36;;;;;;;;;;;;;;;31.22;31.97;96393.56;5101991;28;19932;-76
2023/06/26 09:31:07;;;;;;;;;;;;;;;31.18;32.43;96390.00;5099838;28;20241;-79
2023/06/26 09:33:37;;;;;;;;;;;;;;;31.15;31.53;96396.91;5101744;28;20380;-78
2023/06/26 09:36:18;;;;;;;;;;;;;;;31.21;31.70;96391.25;5101133;28;19956;-78
2023/06/26 09:38:44;;;;;;;;;;;;;;;31.33;31.05;96394.63;5083833;28;19936;-77
2023/06/26 09:41:10;;;;;;;;;;;;;;;31.34;31.27;96385.34;5100847;28;19949;-78
2023/06/26 09:43:45;;;;;;;;;;;;;;;31.24;29.21;96390.53;5100098;28;20002;-75
2023/06/26 09:46:15;;;;;;;;;;;;;;;31.15;30.04;96394.22;5100511;28;19936;-72
2023/06/26 09:48:40;;;;;;;;;;;;;;;31.14;29.36;96391.84;5099776;28;19940;-72
2023/06/26 09:51:06;;;;;;;;;;;;;;;31.12;30.88;96392.22;5100473;28;19937;-72
2023/06/26 09:53:34;;;;;;;;;;;;;;;31.13;30.08;96391.06;5100693;28;19937;-71
2023/06/26 09:56:05;;;;;;;;;;;;;;;31.19;29.77;96383.47;5100425;28;19938;-72
2023/06/26 09:58:32;;;;;;;;;;;;;;;31.26;31.10;96396.38;5101434;28;20227;-71
2023/06/26 10:00:58;;;;;;;;;;;;;;;31.29;29.75;96387.53;5114574;28;19964;-72
2023/06/26 10:03:24;;;;;;;;;;;;;;;31.37;30.09;96391.97;5120889;28;20108;-71
2023/06/26 10:05:50;;;;;;;;;;;;;;;31.21;30.49;96388.53;5121577;28;19942;-72
2023/06/26 10:08:17;;;;;;;;;;;;;;;31.00;30.83;96397.75;5120796;28;19934;-72
2023/06/26 10:10:43;;;;;;;;;;;;;;;31.02;29.90;96400.88;5120784;28;19948;-71
2023/06/26 10:13:16;;;;;;;;;;;;;;;30.95;31.49;96390.69;5105400;28;19945;-72
2023/06/26 10:15:44;;;;;;;;;;;;;;;30.87;31.01;96402.47;5107118;28;20166;-72
2023/06/26 10:18:10;;;;;;;;;;;;;;;30.78;31.77;96392.94;5107667;28;19942;-73
2023/06/26 10:20:36;;;;;;;;;;;;;;;30.82;33.36;96401.94;5107463;28;19949;-70
2023/06/26 10:23:05;;;;;;;;;;;;;;;30.90;32.74;96398.28;5107810;28;20093;-71
2023/06/26 10:25:31;;;;;;;;;;;;;;;31.09;33.09;96406.47;5105788;28;20101;-72
2023/06/26 10:27:59;;;;;;;;;;;;;;;31.27;32.72;96411.50;5105669;28;19944;-72
2023/06/26 10:30:27;;;;;;;;;;;;;;;31.39;32.01;96408.66;5089029;28;19942;-71
2023/06/26 10:32:54;;;;;;;;;;;;;;;31.33;32.43;96413.59;5088696;28;19987;-72
2023/06/26 10:35:20;;;;;;;;;;;;;;;31.42;33.00;96415.31;5105598;28;19941;-72
2023/06/26 10:37:47;;;;;;;;;;;;;;;31.41;32.99;96419.16;5088726;28;19953;-71
2023/06/26 10:40:14;;;;;;;;;;;;;;;31.44;32.87;96424.69;5106816;28;20247;-72
2023/06/26 10:42:40;;;;;;;;;;;;;;;31.39;33.49;96426.84;5106646;28;20082;-72
2023/06/26 10:45:13;;;;;;;;;;;;;;;31.38;33.46;96428.00;5088608;28;19940;-72
2023/06/26 10:47:40;;;;;;;;;;;;;;;31.29;34.96;96439.81;5088316;28;19940;-72
2023/06/26 10:50:26;;;;;;;;;;;;;;;31.29;34.40;96442.53;5089205;28;19931;-72
2023/06/26 10:53:07;;;;;;;;;;;;;;;31.32;34.27;96447.22;5088420;28;19937;-72
2023/06/26 10:55:34;;;;;;;;;;;;;;;31.32;33.79;96438.31;5105032;28;19937;-72
2023/06/26 10:58:01;;;;;;;;;;;;;;;31.40;34.30;96442.75;5088340;28;20145;-78
2023/06/26 11:00:27;;;;;;;;;;;;;;;31.38;34.19;96455.09;5104944;28;19962;-72
2023/06/26 11:02:53;;;;;;;;;;;;;;;31.16;34.88;96449.16;5088976;28;19945;-72
2023/06/26 11:05:26;;;;;;;;;;;;;;;31.13;34.97;96450.66;5088141;28;19934;-71
2023/06/26 11:08:10;;;;;;;;;;;;;;;31.00;34.34;96451.13;5105494;28;19945;-72
2023/06/26 11:10:59;;;;;;;;;;;;;;;31.00;33.51;96451.13;5105980;28;19948;-71
2023/06/26 11:13:26;;;;;;;;;;;;;;;31.07;34.29;96448.59;5105093;28;19985;-71
2023/06/26 11:15:52;;;;;;;;;;;;;;;31.23;34.14;96443.16;5105039;28;19947;-75
2023/06/26 11:18:18;;;;;;;;;;;;;;;31.18;34.62;96444.19;5106180;28;20188;-72
2023/06/26 11:20:44;;;;;;;;;;;;;;;30.94;34.25;96448.69;5104711;28;19952;-78
2023/06/26 11:23:11;;;;;;;;;;;;;;;30.85;34.41;96455.38;5103696;28;20148;-77
2023/06/26 11:25:37;;;;;;;;;;;;;;;30.77;34.52;96448.22;5088575;28;20236;-79
2023/06/26 11:28:04;;;;;;;;;;;;;;;30.68;35.12;96445.66;5087677;28;19943;-75
2023/06/26 11:30:30;;;;;;;;;;;;;;;30.82;34.85;96453.38;5105254;28;19945;-76
2023/06/26 11:33:06;;;;;;;;;;;;;;;31.04;35.43;96452.00;5105567;28;20218;-75
2023/06/26 11:35:33;;;;;;;;;;;;;;;31.25;34.53;96451.72;5105122;28;19942;-75
2023/06/26 11:38:05;;;;;;;;;;;;;;;31.39;34.16;96456.66;5106080;28;19942;-76
2023/06/26 11:40:35;;;;;;;;;;;;;;;31.53;34.94;96459.72;5105638;28;20241;-75
2023/06/26 11:43:01;;;;;;;;;;;;;;;31.71;34.94;96458.19;5104811;28;19961;-75
2023/06/26 11:45:28;;;;;;;;;;;;;;;31.76;34.82;96448.97;5104207;28;19938;-75
2023/06/26 11:47:57;;;;;;;;;;;;;;;31.69;34.88;96459.69;5088091;28;19937;-75
2023/06/26 11:50:23;;;;;;;;;;;;;;;31.53;34.28;96474.03;5087192;28;19937;-75
2023/06/26 11:52:53;;;;;;;;;;;;;;;31.53;35.53;96467.84;5087257;28;20251;-75
2023/06/26 11:55:19;;;;;;;;;;;;;;;31.54;34.52;96466.69;5087107;28;19931;-72
2023/06/26 11:57:49;;;;;;;;;;;;;;;31.65;34.81;96470.44;5105077;28;19943;-71
2023/06/26 12:00:18;;;;;;;;;;;;;;;31.72;34.85;96467.88;5104028;28;19961;-72
2023/06/26 12:02:45;;;;;;;;;;;;;;;31.81;34.81;96470.38;5105320;28;20022;-72
2023/06/26 12:05:15;;;;;;;;;;;;;;;31.78;35.50;96468.38;5105012;28;19933;-72
2023/06/26 12:07:42;;;;;;;;;;;;;;;31.80;35.07;96470.75;5105257;28;20115;-72
2023/06/26 12:10:10;;;;;;;;;;;;;;;31.73;34.27;96468.63;5105429;28;19941;-71
2023/06/26 12:12:36;;;;;;;;;;;;;;;31.81;35.46;96469.59;5104837;28;19950;-72
2023/06/26 12:15:02;;;;;;;;;;;;;;;31.78;33.86;96465.66;5105683;28;20013;-75
2023/06/26 12:17:28;;;;;;;;;;;;;;;31.72;35.26;96470.56;5104787;28;19933;-74
2023/06/26 12:19:54;;;;;;;;;;;;;;;31.65;36.00;96466.94;5105236;28;20266;-75
2023/06/26 12:22:20;;;;;;;;;;;;;;;31.60;35.00;96470.69;5104955;28;19933;-75
2023/06/26 12:24:46;;;;;;;;;;;;;;;31.67;34.57;96468.16;5103580;28;19936;-75
2023/06/26 12:27:14;;;;;;;;;;;;;;;31.79;35.64;96469.16;5105187;28;19941;-77
2023/06/26 12:29:40;;;;;;;;;;;;;;;31.75;35.27;96455.50;5104613;28;19935;-72
2023/06/26 12:32:10;;;;;;;;;;;;;;;31.64;35.81;96460.72;5104471;28;19958;-71
2023/06/26 12:34:37;;;;;;;;;;;;;;;31.68;36.08;96455.38;5104276;28;19943;-72
2023/06/26 12:37:05;;;;;;;;;;;;;;;31.56;36.50;96461.69;5105032;28;19931;-71
2023/06/26 12:39:44;;;;;;;;;;;;;;;31.42;36.25;96472.22;5104700;28;19945;-73
2023/06/26 12:42:13;;;;;;;;;;;;;;;31.25;36.92;96460.63;5087231;28;20228;-72
2023/06/26 12:44:38;;;;;;;;;;;;;;;31.29;37.51;96460.69;5104856;28;19934;-71
2023/06/26 12:47:06;;;;;;;;;;;;;;;31.40;37.43;96447.41;5104658;28;19949;-72
2023/06/26 12:49:36;;;;;;;;;;;;;;;31.48;36.83;96463.50;5103147;28;19938;-76